Time;durP1;ratioP1;P1;durP2;ratioP2;P2;SDS_P1;SDS_P2;PMS_P1;PMS_P2;Temp;Humidity;BMP_temperature;BMP_pressure;BME280_temperature;BME280_humidity;BME280_pressure;Samples;Min_cycle;Max_cycle;Signal;HPM_P1;HPM_P2
2022/03/26 00:00:38;;;;;;;36.13;21.20;;;8.30;99.90;;;;;;4981380;28;39059;-76
2022/03/26 00:03:04;;;;;;;36.07;20.13;;;8.30;99.90;;;;;;4979672;28;37695;-76
2022/03/26 00:05:30;;;;;;;34.33;20.43;;;8.30;99.90;;;;;;4982684;28;39257;-76
2022/03/26 00:07:57;;;;;;;41.40;19.90;;;8.30;99.90;;;;;;4983579;28;37671;-75
2022/03/26 00:10:23;;;;;;;37.87;19.97;;;8.30;99.90;;;;;;4964503;28;39618;-75
2022/03/26 00:12:50;;;;;;;33.53;19.93;;;8.30;99.90;;;;;;4966025;28;39756;-76
2022/03/26 00:15:16;;;;;;;37.93;19.87;;;8.30;99.90;;;;;;4966829;28;38747;-75
2022/03/26 00:17:42;;;;;;;35.67;19.47;;;8.20;99.90;;;;;;4977048;28;39032;-76
2022/03/26 00:20:09;;;;;;;37.70;19.77;;;8.20;99.90;;;;;;4971776;28;40081;-76
2022/03/26 00:22:35;;;;;;;34.40;19.70;;;8.40;99.90;;;;;;4975721;28;40329;-76
2022/03/26 00:25:01;;;;;;;37.03;19.70;;;8.40;99.90;;;;;;4975142;28;38684;-76
2022/03/26 00:27:27;;;;;;;36.63;18.93;;;8.30;99.90;;;;;;4965623;28;35864;-76
2022/03/26 00:29:53;;;;;;;37.30;19.63;;;8.20;99.90;;;;;;4981296;28;38605;-76
2022/03/26 00:32:20;;;;;;;33.80;18.37;;;8.20;99.90;;;;;;4976436;28;39283;-76
2022/03/26 00:34:46;;;;;;;42.97;19.73;;;8.20;99.90;;;;;;4966098;28;38597;-76
2022/03/26 00:37:12;;;;;;;26.30;17.83;;;8.10;99.90;;;;;;4976444;28;37724;-76
2022/03/26 00:39:39;;;;;;;34.40;18.50;;;8.00;99.90;;;;;;4977512;28;37194;-76
2022/03/26 00:42:08;;;;;;;29.60;17.67;;;7.90;99.90;;;;;;4976394;28;38850;-76
2022/03/26 00:44:38;;;;;;;32.30;17.50;;;7.90;99.90;;;;;;4959460;28;38681;-75
2022/03/26 00:47:06;;;;;;;34.60;19.13;;;7.80;99.90;;;;;;4976032;28;37470;-76
2022/03/26 00:49:32;;;;;;;34.47;17.80;;;7.80;99.90;;;;;;4977005;28;36846;-76
2022/03/26 00:51:58;;;;;;;32.97;18.23;;;7.80;99.90;;;;;;4971699;28;36301;-76
2022/03/26 00:54:24;;;;;;;30.90;17.10;;;7.80;99.90;;;;;;4976590;28;38564;-76
2022/03/26 00:56:51;;;;;;;35.70;18.10;;;7.80;99.90;;;;;;4978790;28;37154;-75
2022/03/26 00:59:17;;;;;;;34.40;18.07;;;7.80;99.90;;;;;;4977230;28;38930;-75
2022/03/26 01:01:43;;;;;;;36.67;18.00;;;7.80;99.90;;;;;;4979397;28;39658;-76
2022/03/26 01:04:09;;;;;;;33.23;17.53;;;7.70;99.90;;;;;;4971872;28;39230;-76
2022/03/26 01:06:35;;;;;;;31.23;17.50;;;7.70;99.90;;;;;;4973764;28;41323;-76
2022/03/26 01:09:02;;;;;;;37.77;18.90;;;7.60;99.90;;;;;;4973182;28;38695;-76
2022/03/26 01:11:28;;;;;;;35.03;18.27;;;7.50;99.90;;;;;;4980395;28;38497;-75
2022/03/26 01:13:56;;;;;;;35.67;19.33;;;7.50;99.90;;;;;;4981016;28;38071;-75
2022/03/26 01:16:26;;;;;;;30.07;16.70;;;7.60;99.90;;;;;;4979025;28;38752;-76
2022/03/26 01:18:53;;;;;;;37.63;18.47;;;7.70;99.90;;;;;;4980526;28;39969;-75
2022/03/26 01:21:20;;;;;;;33.87;19.30;;;7.70;99.90;;;;;;4959318;28;39573;-76
2022/03/26 01:23:47;;;;;;;36.57;19.07;;;7.60;99.90;;;;;;4978708;28;38121;-76
2022/03/26 01:26:14;;;;;;;41.73;22.03;;;7.70;99.90;;;;;;4984287;28;36666;-76
2022/03/26 01:28:40;;;;;;;41.33;20.80;;;7.70;99.90;;;;;;4977830;28;38380;-76
2022/03/26 01:31:07;;;;;;;44.73;22.77;;;7.70;99.90;;;;;;4969078;28;38613;-77
2022/03/26 01:33:34;;;;;;;42.73;22.10;;;7.70;99.90;;;;;;4983047;28;40992;-75
2022/03/26 01:36:00;;;;;;;37.00;22.40;;;7.80;99.90;;;;;;4984375;28;37610;-75
2022/03/26 01:38:26;;;;;;;38.10;20.97;;;7.80;99.90;;;;;;4962647;28;40366;-76
2022/03/26 01:40:53;;;;;;;46.73;23.30;;;7.80;99.90;;;;;;4982341;28;38599;-76
2022/03/26 01:43:19;;;;;;;38.83;22.63;;;7.80;99.90;;;;;;4982742;28;38396;-76
2022/03/26 01:45:45;;;;;;;42.80;21.80;;;7.90;99.90;;;;;;4976785;28;38530;-75
2022/03/26 01:48:11;;;;;;;38.67;21.70;;;7.80;99.90;;;;;;4976100;28;39476;-76
2022/03/26 01:50:40;;;;;;;42.83;23.13;;;7.70;99.90;;;;;;4976474;28;38354;-76
2022/03/26 01:53:06;;;;;;;38.50;22.20;;;7.60;99.90;;;;;;4981654;28;37857;-75
2022/03/26 01:55:33;;;;;;;39.23;21.30;;;7.50;99.90;;;;;;4980755;28;36851;-75
2022/03/26 01:57:59;;;;;;;41.43;22.63;;;7.40;99.90;;;;;;4979580;28;38769;-75
2022/03/26 02:00:25;;;;;;;39.60;22.70;;;7.30;99.90;;;;;;4980658;28;38481;-76
2022/03/26 02:02:51;;;;;;;40.83;23.03;;;7.20;99.90;;;;;;4980138;28;40080;-75
2022/03/26 02:05:19;;;;;;;40.43;22.23;;;7.10;99.90;;;;;;4979961;28;37994;-76
2022/03/26 02:07:47;;;;;;;46.73;22.67;;;7.00;99.90;;;;;;4978430;28;38368;-75
2022/03/26 02:10:16;;;;;;;45.87;23.20;;;6.90;99.90;;;;;;4980758;28;38305;-75
2022/03/26 02:12:45;;;;;;;40.17;24.03;;;6.80;99.90;;;;;;4979847;28;38488;-75
2022/03/26 02:15:12;;;;;;;42.60;23.70;;;6.70;99.90;;;;;;4978070;28;35882;-74
2022/03/26 02:17:39;;;;;;;46.93;26.10;;;6.70;99.90;;;;;;4981226;28;41316;-75
2022/03/26 02:20:10;;;;;;;44.80;24.17;;;6.60;99.90;;;;;;4977870;28;38881;-78
2022/03/26 02:22:38;;;;;;;42.80;23.90;;;6.60;99.90;;;;;;4945852;28;38208;-77
2022/03/26 02:25:06;;;;;;;45.40;23.53;;;6.50;99.90;;;;;;4982794;28;37248;-77
2022/03/26 02:27:33;;;;;;;50.50;25.00;;;6.40;99.90;;;;;;4981860;28;39313;-77
2022/03/26 02:29:59;;;;;;;42.67;24.20;;;6.40;99.90;;;;;;4982183;28;38747;-77
2022/03/26 02:32:27;;;;;;;43.27;24.97;;;6.40;99.90;;;;;;4960740;28;38880;-77
2022/03/26 02:34:54;;;;;;;56.43;27.90;;;6.40;99.90;;;;;;4966099;28;37810;-77
2022/03/26 02:37:21;;;;;;;41.33;25.17;;;6.30;99.90;;;;;;4960269;28;39609;-77
2022/03/26 02:39:47;;;;;;;43.30;25.40;;;6.30;99.90;;;;;;4980154;28;39153;-77
2022/03/26 02:42:14;;;;;;;45.53;25.90;;;6.30;99.90;;;;;;4980585;28;38414;-77
2022/03/26 02:44:42;;;;;;;45.80;26.30;;;6.20;99.90;;;;;;4976416;28;37620;-77
2022/03/26 02:47:11;;;;;;;45.60;26.10;;;6.20;99.90;;;;;;4979679;28;38846;-77
2022/03/26 02:49:37;;;;;;;54.07;26.43;;;6.20;99.90;;;;;;4959087;28;38082;-78
2022/03/26 02:52:04;;;;;;;48.90;26.70;;;6.20;99.90;;;;;;4979148;28;37386;-77
2022/03/26 02:54:31;;;;;;;49.90;27.30;;;6.20;99.90;;;;;;4981272;28;37367;-77
2022/03/26 02:56:57;;;;;;;50.60;26.63;;;6.20;99.90;;;;;;4981309;28;37043;-77
2022/03/26 02:59:23;;;;;;;57.73;29.67;;;6.10;99.90;;;;;;4977076;28;38859;-77
2022/03/26 03:01:52;;;;;;;50.83;28.40;;;6.10;99.90;;;;;;4981321;28;38171;-77
2022/03/26 03:04:20;;;;;;;44.70;27.47;;;6.10;99.90;;;;;;4958565;28;37473;-77
2022/03/26 03:06:48;;;;;;;52.03;27.13;;;6.10;99.90;;;;;;4976134;28;39612;-77
2022/03/26 03:09:14;;;;;;;54.03;28.90;;;6.00;99.90;;;;;;4978370;28;40219;-77
2022/03/26 03:11:40;;;;;;;57.87;29.23;;;6.00;99.90;;;;;;4964910;28;40011;-77
2022/03/26 03:14:06;;;;;;;54.87;29.70;;;5.90;99.90;;;;;;4981386;28;37671;-77
2022/03/26 03:16:33;;;;;;;57.47;30.23;;;5.90;99.90;;;;;;4980506;28;38928;-77
2022/03/26 03:18:59;;;;;;;57.47;28.53;;;5.90;99.90;;;;;;4979723;28;39154;-77
2022/03/26 03:21:25;;;;;;;55.27;29.17;;;5.90;99.90;;;;;;4975302;28;38692;-77
2022/03/26 03:23:51;;;;;;;55.50;28.73;;;6.00;99.90;;;;;;4981989;28;37248;-77
2022/03/26 03:26:17;;;;;;;60.27;30.60;;;6.00;99.90;;;;;;4976666;28;38663;-77
2022/03/26 03:28:44;;;;;;;58.73;31.90;;;6.00;99.90;;;;;;4978785;28;37173;-77
2022/03/26 03:31:10;;;;;;;61.00;30.47;;;5.90;99.90;;;;;;4976608;28;37441;-78
2022/03/26 03:33:36;;;;;;;56.67;29.37;;;5.90;99.90;;;;;;4973441;28;38062;-77
2022/03/26 03:36:03;;;;;;;58.57;30.43;;;5.90;99.90;;;;;;4977065;28;38492;-79
2022/03/26 03:38:30;;;;;;;60.57;29.80;;;5.90;99.90;;;;;;4977889;28;40026;-77
2022/03/26 03:40:56;;;;;;;65.03;32.07;;;5.80;99.90;;;;;;4967903;28;39678;-77
2022/03/26 03:43:22;;;;;;;58.27;31.63;;;5.70;99.90;;;;;;4965916;28;38149;-77
2022/03/26 03:45:49;;;;;;;57.13;30.53;;;5.70;99.90;;;;;;4978971;28;39296;-77
2022/03/26 03:48:15;;;;;;;59.53;30.83;;;5.60;99.90;;;;;;4972576;28;38806;-77
2022/03/26 03:50:42;;;;;;;59.87;31.63;;;5.50;99.90;;;;;;4978737;28;38880;-77
2022/03/26 03:53:08;;;;;;;62.60;32.57;;;5.50;99.90;;;;;;4974768;28;38773;-77
2022/03/26 03:55:34;;;;;;;60.93;31.00;;;5.40;99.90;;;;;;4973014;28;39550;-77
2022/03/26 03:58:00;;;;;;;57.50;30.37;;;5.30;99.90;;;;;;4976815;28;38380;-77
2022/03/26 04:00:27;;;;;;;61.77;32.03;;;5.30;99.90;;;;;;4976680;28;41624;-77
2022/03/26 04:02:54;;;;;;;57.13;30.40;;;5.20;99.90;;;;;;4983548;28;36019;-77
2022/03/26 04:05:23;;;;;;;60.37;31.80;;;5.10;99.90;;;;;;4983380;28;38712;-77
2022/03/26 04:07:50;;;;;;;59.13;31.63;;;5.10;99.90;;;;;;4965379;28;39534;-76
2022/03/26 04:10:16;;;;;;;63.47;32.47;;;5.10;99.90;;;;;;4982499;28;38178;-77
2022/03/26 04:12:43;;;;;;;68.10;32.87;;;5.00;99.90;;;;;;4985153;28;38124;-77
2022/03/26 04:15:11;;;;;;;65.60;31.93;;;5.00;99.90;;;;;;4979260;28;40027;-77
2022/03/26 04:17:37;;;;;;;62.07;32.43;;;5.00;99.90;;;;;;4978266;28;38531;-77
2022/03/26 04:20:08;;;;;;;65.30;33.17;;;4.90;99.90;;;;;;4972473;28;39890;-77
2022/03/26 04:22:38;;;;;;;58.67;30.23;;;4.90;99.90;;;;;;4980475;28;37407;-77
2022/03/26 04:25:06;;;;;;;68.03;32.73;;;4.80;99.90;;;;;;4963592;28;39282;-77
2022/03/26 04:27:32;;;;;;;62.47;32.33;;;4.70;99.90;;;;;;4979511;28;39823;-77
2022/03/26 04:29:59;;;;;;;61.03;31.97;;;4.70;99.90;;;;;;4976842;28;39054;-77
2022/03/26 04:32:25;;;;;;;64.60;31.50;;;4.70;99.90;;;;;;4961697;28;38627;-77
2022/03/26 04:34:51;;;;;;;65.23;32.17;;;4.60;99.90;;;;;;4959952;28;39506;-77
2022/03/26 04:37:17;;;;;;;62.23;32.80;;;4.60;99.90;;;;;;4977456;28;38472;-76
2022/03/26 04:39:43;;;;;;;62.83;31.03;;;4.60;99.90;;;;;;4980605;28;38241;-77
2022/03/26 04:42:09;;;;;;;68.40;33.03;;;4.60;99.90;;;;;;4954137;28;37638;-78
2022/03/26 04:44:36;;;;;;;60.23;31.07;;;4.50;99.90;;;;;;4953720;28;39925;-77
2022/03/26 04:47:02;;;;;;;66.27;34.23;;;4.40;99.90;;;;;;4979500;28;39558;-77
2022/03/26 04:49:28;;;;;;;70.93;33.27;;;4.40;99.90;;;;;;4944987;28;39125;-77
2022/03/26 04:51:54;;;;;;;72.93;33.53;;;4.50;99.90;;;;;;4978530;28;37020;-76
2022/03/26 04:54:20;;;;;;;73.10;35.43;;;4.40;99.90;;;;;;4977675;28;39852;-76
2022/03/26 04:56:46;;;;;;;63.43;34.53;;;4.40;99.90;;;;;;4982920;28;38112;-76
2022/03/26 04:59:12;;;;;;;68.67;33.67;;;4.40;99.90;;;;;;4976576;28;38287;-77
2022/03/26 05:01:38;;;;;;;80.03;36.53;;;4.40;99.90;;;;;;4984542;28;37425;-76
2022/03/26 05:04:05;;;;;;;71.00;34.23;;;4.40;99.90;;;;;;4982529;28;38793;-76
2022/03/26 05:06:31;;;;;;;69.47;34.27;;;4.40;99.90;;;;;;4963919;28;39335;-77
2022/03/26 05:08:57;;;;;;;67.87;33.73;;;4.40;99.90;;;;;;4981947;28;38725;-75
2022/03/26 05:11:24;;;;;;;74.30;35.30;;;4.30;99.90;;;;;;4980373;28;37262;-78
2022/03/26 05:13:50;;;;;;;69.80;34.67;;;4.30;99.90;;;;;;4983322;28;38873;-75
2022/03/26 05:16:16;;;;;;;72.53;35.10;;;4.30;99.90;;;;;;4985522;28;39106;-75
2022/03/26 05:18:42;;;;;;;69.80;33.87;;;4.20;99.90;;;;;;4983616;28;39177;-77
2022/03/26 05:21:08;;;;;;;79.30;36.63;;;4.20;99.90;;;;;;4979958;28;37962;-78
2022/03/26 05:23:35;;;;;;;71.37;34.63;;;4.20;99.90;;;;;;4964493;28;39887;-77
2022/03/26 05:26:02;;;;;;;81.77;36.63;;;4.20;99.90;;;;;;4985574;28;38292;-76
2022/03/26 05:28:29;;;;;;;73.70;36.53;;;4.20;99.90;;;;;;4984041;28;38458;-77
2022/03/26 05:30:55;;;;;;;70.43;37.07;;;4.20;99.90;;;;;;4982752;28;37650;-77
2022/03/26 05:33:22;;;;;;;71.57;35.63;;;4.20;99.90;;;;;;4984827;28;39543;-77
2022/03/26 05:35:48;;;;;;;76.47;37.97;;;4.20;99.90;;;;;;4963434;28;38688;-77
2022/03/26 05:38:14;;;;;;;81.77;38.83;;;4.10;99.90;;;;;;4977342;28;38599;-77
2022/03/26 05:40:40;;;;;;;80.03;37.73;;;4.10;99.90;;;;;;4980105;28;37489;-77
2022/03/26 05:43:07;;;;;;;84.53;39.33;;;4.10;99.90;;;;;;4979009;28;40554;-77
2022/03/26 05:45:33;;;;;;;89.90;39.67;;;4.10;99.90;;;;;;4981516;28;38057;-77
2022/03/26 05:48:02;;;;;;;86.87;39.67;;;4.10;99.90;;;;;;4979221;28;39190;-77
2022/03/26 05:50:29;;;;;;;82.40;40.37;;;4.10;99.90;;;;;;4977497;28;48810;-77
2022/03/26 05:52:56;;;;;;;82.43;40.73;;;4.20;99.90;;;;;;4980819;28;38631;-77
2022/03/26 05:55:22;;;;;;;95.97;42.23;;;4.20;99.90;;;;;;4979429;28;38588;-77
2022/03/26 05:57:48;;;;;;;83.67;41.13;;;4.20;99.90;;;;;;4975135;28;38156;-77
2022/03/26 06:00:15;;;;;;;76.43;38.97;;;4.20;99.90;;;;;;4958646;28;37600;-77
2022/03/26 06:02:42;;;;;;;99.13;45.07;;;4.20;99.90;;;;;;4960353;28;38714;-76
2022/03/26 06:05:08;;;;;;;90.37;40.90;;;4.30;99.90;;;;;;4963495;28;38549;-77
2022/03/26 06:07:35;;;;;;;91.50;43.53;;;4.30;99.90;;;;;;4976363;28;38276;-77
2022/03/26 06:10:01;;;;;;;92.30;43.53;;;4.40;99.90;;;;;;4970726;28;39009;-77
2022/03/26 06:12:27;;;;;;;84.80;41.60;;;4.50;99.90;;;;;;4964582;28;48662;-77
2022/03/26 06:14:54;;;;;;;93.13;43.73;;;4.50;99.90;;;;;;4964503;28;38337;-76
2022/03/26 06:17:22;;;;;;;95.23;43.10;;;4.50;99.90;;;;;;4954652;28;39057;-77
2022/03/26 06:19:48;;;;;;;98.77;45.27;;;4.50;99.90;;;;;;4962701;28;37383;-76
2022/03/26 06:22:14;;;;;;;93.33;45.97;;;4.50;99.90;;;;;;4971727;28;39130;-77
2022/03/26 06:24:40;;;;;;;98.40;45.47;;;4.50;99.90;;;;;;4958308;28;39067;-77
2022/03/26 06:27:06;;;;;;;97.57;44.43;;;4.50;99.90;;;;;;4962079;28;36876;-77
2022/03/26 06:29:33;;;;;;;100.97;45.80;;;4.50;99.90;;;;;;4961433;28;37148;-77
2022/03/26 06:32:01;;;;;;;90.27;45.67;;;4.60;99.90;;;;;;4962989;28;39256;-76
2022/03/26 06:34:28;;;;;;;100.20;45.77;;;4.60;99.90;;;;;;4963503;28;47144;-77
2022/03/26 06:36:55;;;;;;;87.73;42.33;;;4.70;99.90;;;;;;4960155;28;38348;-78
2022/03/26 06:39:21;;;;;;;91.83;45.83;;;4.80;99.90;;;;;;4961109;28;38429;-77
2022/03/26 06:41:47;;;;;;;103.73;46.53;;;4.80;99.90;;;;;;4960227;28;38973;-77
2022/03/26 06:44:14;;;;;;;99.67;47.57;;;4.90;99.90;;;;;;4960523;28;39333;-77
2022/03/26 06:46:40;;;;;;;96.47;47.57;;;5.00;99.90;;;;;;4974044;28;38447;-77
2022/03/26 06:49:08;;;;;;;102.93;49.93;;;5.10;99.90;;;;;;4958168;28;37052;-77
2022/03/26 06:51:37;;;;;;;110.30;50.63;;;5.20;99.90;;;;;;4972204;28;39748;-77
2022/03/26 06:54:05;;;;;;;131.07;56.43;;;5.30;99.90;;;;;;4935956;28;38766;-77
2022/03/26 06:56:31;;;;;;;112.53;53.07;;;5.50;99.90;;;;;;4960497;28;37860;-77
2022/03/26 06:58:58;;;;;;;120.40;52.87;;;5.60;99.90;;;;;;4982136;28;37317;-77
2022/03/26 07:01:24;;;;;;;130.43;58.00;;;5.90;99.90;;;;;;4978641;28;40023;-77
2022/03/26 07:03:50;;;;;;;117.97;55.00;;;6.20;99.90;;;;;;4982269;28;39307;-77
2022/03/26 07:06:19;;;;;;;121.73;55.23;;;6.40;99.90;;;;;;4984036;28;37983;-77
2022/03/26 07:08:46;;;;;;;118.13;55.73;;;6.60;99.90;;;;;;4977067;28;38005;-77
2022/03/26 07:11:12;;;;;;;107.80;54.70;;;6.90;99.90;;;;;;4974984;28;38686;-78
2022/03/26 07:13:38;;;;;;;102.13;51.67;;;7.00;99.90;;;;;;4981356;28;38721;-78
2022/03/26 07:16:04;;;;;;;110.63;49.97;;;7.10;99.90;;;;;;4963760;28;38789;-78
2022/03/26 07:18:30;;;;;;;98.00;49.63;;;7.40;99.90;;;;;;4962724;28;37676;-77
2022/03/26 07:21:00;;;;;;;91.40;48.07;;;7.60;99.90;;;;;;4979960;28;40021;-78
2022/03/26 07:23:27;;;;;;;87.33;46.13;;;7.70;99.90;;;;;;4976420;28;47498;-77
2022/03/26 07:25:54;;;;;;;85.80;44.33;;;7.80;99.90;;;;;;4980899;28;38168;-77
2022/03/26 07:28:20;;;;;;;90.50;49.17;;;7.90;99.90;;;;;;4978748;28;37572;-76
2022/03/26 07:30:46;;;;;;;76.37;42.43;;;8.10;99.90;;;;;;4976790;28;37741;-75
2022/03/26 07:33:12;;;;;;;78.20;42.20;;;8.20;99.90;;;;;;4976595;28;41045;-77
2022/03/26 07:35:39;;;;;;;77.00;40.20;;;8.30;99.90;;;;;;4977653;28;38016;-75
2022/03/26 07:38:05;;;;;;;79.73;42.83;;;8.40;99.90;;;;;;4961218;28;37299;-75
2022/03/26 07:40:31;;;;;;;64.37;36.53;;;8.50;99.90;;;;;;4969741;28;39635;-76
2022/03/26 07:42:57;;;;;;;71.63;37.27;;;8.70;99.90;;;;;;4967626;28;39482;-75
2022/03/26 07:45:23;;;;;;;66.40;36.47;;;8.80;99.90;;;;;;4978565;28;38172;-75
2022/03/26 07:47:49;;;;;;;58.83;33.43;;;8.90;99.90;;;;;;4981466;28;38377;-75
2022/03/26 07:50:16;;;;;;;62.80;34.50;;;9.10;99.90;;;;;;4976812;28;40448;-76
2022/03/26 07:52:42;;;;;;;59.47;32.00;;;9.20;99.90;;;;;;4977026;28;39923;-76
2022/03/26 07:55:10;;;;;;;57.97;32.00;;;9.30;99.90;;;;;;4977546;28;38824;-75
2022/03/26 07:57:36;;;;;;;61.30;33.30;;;9.50;99.90;;;;;;4978831;28;37627;-75
2022/03/26 08:00:05;;;;;;;57.77;32.33;;;9.50;99.90;;;;;;4974487;28;39730;-75
2022/03/26 08:02:31;;;;;;;56.93;29.03;;;9.70;99.90;;;;;;4958852;28;39650;-75
2022/03/26 08:04:57;;;;;;;55.20;28.90;;;9.90;99.90;;;;;;4980222;28;37507;-76
2022/03/26 08:07:23;;;;;;;54.67;28.67;;;10.10;99.90;;;;;;4976754;28;37645;-75
2022/03/26 08:09:49;;;;;;;52.83;28.85;;;10.20;99.90;;;;;;4972837;28;41411;-75
2022/03/26 08:12:15;;;;;;;55.83;28.38;;;10.40;99.90;;;;;;4960575;28;38698;-75
2022/03/26 08:14:42;;;;;;;51.13;27.48;;;10.50;99.90;;;;;;4975453;28;38104;-75
2022/03/26 08:17:08;;;;;;;55.38;30.15;;;10.60;99.90;;;;;;4958637;28;39277;-74
2022/03/26 08:19:34;;;;;;;53.55;27.73;;;10.80;99.90;;;;;;4971620;28;39057;-75
2022/03/26 08:22:01;;;;;;;51.15;28.65;;;11.10;99.90;;;;;;4974523;28;38150;-75
2022/03/26 08:24:28;;;;;;;48.30;26.20;;;11.20;99.90;;;;;;4963925;28;47089;-75
2022/03/26 08:26:54;;;;;;;55.50;29.67;;;11.40;99.90;;;;;;4959460;28;39161;-75
2022/03/26 08:29:20;;;;;;;53.72;29.10;;;11.60;99.90;;;;;;4974892;28;40929;-77
2022/03/26 08:31:46;;;;;;;59.08;30.45;;;11.60;99.90;;;;;;4975535;28;38618;-78
2022/03/26 08:34:12;;;;;;;55.10;29.63;;;11.80;99.90;;;;;;4976121;28;36866;-76
2022/03/26 08:36:38;;;;;;;53.28;29.08;;;11.80;99.90;;;;;;4976924;28;37487;-77
2022/03/26 08:39:04;;;;;;;54.70;28.90;;;12.00;99.90;;;;;;4974582;28;38900;-77
2022/03/26 08:41:30;;;;;;;55.25;29.40;;;12.10;99.90;;;;;;4980150;28;47570;-77
2022/03/26 08:43:57;;;;;;;57.22;29.30;;;12.20;99.90;;;;;;4965674;28;39259;-77
2022/03/26 08:46:23;;;;;;;53.55;29.35;;;12.30;99.90;;;;;;4977325;28;37507;-78
2022/03/26 08:48:50;;;;;;;58.75;31.02;;;12.30;99.90;;;;;;4978883;28;38465;-77
2022/03/26 08:51:17;;;;;;;61.83;29.77;;;12.40;99.90;;;;;;4958960;28;37382;-77
2022/03/26 08:53:43;;;;;;;61.20;31.63;;;12.40;99.90;;;;;;4979581;28;39370;-77
2022/03/26 08:56:09;;;;;;;59.95;30.77;;;12.50;99.90;;;;;;4981571;28;37242;-78
2022/03/26 08:58:36;;;;;;;56.08;29.30;;;12.60;99.90;;;;;;4973519;28;39455;-78
2022/03/26 09:01:03;;;;;;;59.20;32.17;;;12.60;99.90;;;;;;4972099;28;37586;-78
2022/03/26 09:03:30;;;;;;;60.15;31.40;;;12.70;99.90;;;;;;4955312;28;38255;-77
2022/03/26 09:05:57;;;;;;;59.75;30.88;;;12.80;99.90;;;;;;4958102;28;37625;-78
2022/03/26 09:08:23;;;;;;;57.95;30.17;;;12.80;99.90;;;;;;4961184;28;39197;-78
2022/03/26 09:10:49;;;;;;;56.30;30.42;;;13.00;99.90;;;;;;4964028;28;39193;-78
2022/03/26 09:13:15;;;;;;;53.05;28.23;;;13.20;99.90;;;;;;4961511;28;39763;-78
2022/03/26 09:15:42;;;;;;;53.08;28.77;;;13.30;99.90;;;;;;4961677;28;37431;-79
2022/03/26 09:18:09;;;;;;;52.45;27.05;;;13.50;99.90;;;;;;4964490;28;40316;-78
2022/03/26 09:20:35;;;;;;;47.30;28.10;;;13.60;99.90;;;;;;4960678;28;38539;-78
2022/03/26 09:23:01;;;;;;;49.28;26.20;;;13.70;99.90;;;;;;4966026;28;38900;-80
2022/03/26 09:25:29;;;;;;;49.35;24.73;;;13.80;99.90;;;;;;4963288;28;38850;-81
2022/03/26 09:27:56;;;;;;;46.30;23.92;;;14.00;99.90;;;;;;4961415;28;38284;-81
2022/03/26 09:30:22;;;;;;;47.50;25.27;;;14.20;99.90;;;;;;4962524;28;39589;-80
2022/03/26 09:32:48;;;;;;;42.13;24.08;;;14.30;99.90;;;;;;4979674;28;39021;-81
2022/03/26 09:35:14;;;;;;;47.60;26.92;;;14.50;99.90;;;;;;4965467;28;38416;-80
2022/03/26 09:37:43;;;;;;;55.53;27.60;;;14.70;99.90;;;;;;4958269;28;39275;-80
2022/03/26 09:40:11;;;;;;;45.33;25.13;;;14.80;99.90;;;;;;4963437;28;39634;-80
2022/03/26 09:43:01;;;;;;;46.80;25.83;;;14.80;99.90;;;;;;4982612;28;38581;-80
2022/03/26 09:45:27;;;;;;;45.75;24.38;;;15.00;99.90;;;;;;4964455;28;47199;-77
2022/03/26 09:47:54;;;;;;;44.55;24.02;;;15.20;99.90;;;;;;4978780;28;39953;-77
2022/03/26 09:50:21;;;;;;;48.25;25.08;;;15.10;99.90;;;;;;4979909;28;39236;-76
2022/03/26 09:52:49;;;;;;;47.60;24.80;;;15.20;99.90;;;;;;4982220;28;39073;-77
2022/03/26 09:55:17;;;;;;;40.20;23.60;;;15.30;99.90;;;;;;4980101;28;38724;-80
2022/03/26 09:57:43;;;;;;;42.90;23.48;;;15.30;99.90;;;;;;4974689;28;41583;-78
2022/03/26 10:00:10;;;;;;;44.45;22.75;;;15.30;99.90;;;;;;4981494;28;38765;-78
2022/03/26 10:02:36;;;;;;;35.53;18.30;;;15.50;99.90;;;;;;4985271;28;39035;-79
2022/03/26 10:05:03;;;;;;;31.02;16.58;;;15.60;99.90;;;;;;4986999;28;38013;-78
2022/03/26 10:07:30;;;;;;;24.00;15.48;;;15.70;99.90;;;;;;4985954;28;38925;-78
2022/03/26 10:09:56;;;;;;;31.20;16.48;;;15.70;99.90;;;;;;4988663;28;38898;-79
2022/03/26 10:12:27;;;;;;;33.63;18.30;;;15.90;99.90;;;;;;4987084;28;37919;-78
2022/03/26 10:14:58;;;;;;;33.97;19.52;;;15.90;99.90;;;;;;4986611;28;37674;-78
2022/03/26 10:17:30;;;;;;;29.70;18.02;;;16.10;99.90;;;;;;4985107;28;38666;-78
2022/03/26 10:19:58;;;;;;;28.50;17.35;;;16.20;99.90;;;;;;4984768;28;38700;-79
2022/03/26 10:22:45;;;;;;;27.35;17.08;;;16.20;99.90;;;;;;4983288;28;37771;-79
2022/03/26 10:25:20;;;;;;;27.02;17.42;;;16.30;99.90;;;;;;4986118;28;38199;-79
2022/03/26 10:27:51;;;;;;;24.63;17.63;;;16.20;99.90;;;;;;4965654;28;40264;-79
2022/03/26 10:33:21;;;;;;;30.30;19.30;;;16.50;99.90;;;;;;4982990;28;39828;-78
2022/03/26 10:36:01;;;;;;;27.00;17.05;;;16.60;99.90;;;;;;4982115;28;39461;-78
2022/03/26 10:38:37;;;;;;;30.08;17.00;;;16.80;99.90;;;;;;4980831;28;48571;-79
2022/03/26 10:41:08;;;;;;;29.15;17.23;;;17.00;99.90;;;;;;4984216;28;40062;-78
2022/03/26 10:43:39;;;;;;;30.48;17.67;;;17.00;99.90;;;;;;4985613;28;38062;-79
2022/03/26 10:46:05;;;;;;;27.38;15.52;;;17.10;99.90;;;;;;4986163;28;37903;-78
2022/03/26 10:48:34;;;;;;;28.20;16.23;;;17.20;99.90;;;;;;4985651;28;39274;-80
2022/03/26 10:51:09;;;;;;;25.70;15.63;;;17.20;99.90;;;;;;4984784;28;38193;-79
2022/03/26 10:53:41;;;;;;;24.95;14.68;;;17.30;99.90;;;;;;4982720;28;48838;-79
2022/03/26 10:56:12;;;;;;;22.42;14.63;;;17.50;99.90;;;;;;4985437;28;37498;-78
2022/03/26 10:58:39;;;;;;;21.10;13.48;;;17.40;99.90;;;;;;4984634;28;39884;-80
2022/03/26 11:01:05;;;;;;;20.83;13.18;;;17.40;99.90;;;;;;4981886;28;39111;-80
2022/03/26 11:03:34;;;;;;;21.52;12.85;;;17.50;99.90;;;;;;4984006;28;38188;-80
2022/03/26 11:06:01;;;;;;;22.45;12.98;;;17.50;99.90;;;;;;4972967;28;39451;-79
2022/03/26 11:08:34;;;;;;;21.27;12.60;;;17.70;99.90;;;;;;4983603;28;47785;-80
2022/03/26 11:11:10;;;;;;;17.42;11.85;;;17.80;99.90;;;;;;4985442;28;39394;-80
2022/03/26 11:13:43;;;;;;;19.25;11.32;;;17.70;99.90;;;;;;4986105;28;48356;-80
2022/03/26 11:16:22;;;;;;;16.60;10.25;;;17.70;99.90;;;;;;4982425;28;38149;-80
2022/03/26 11:19:06;;;;;;;18.80;11.65;;;17.70;99.90;;;;;;4983720;28;38754;-80
2022/03/26 11:21:51;;;;;;;14.23;10.80;;;17.90;99.90;;;;;;4985236;28;48468;-80
2022/03/26 11:24:40;;;;;;;17.98;12.02;;;18.00;99.90;;;;;;4983233;28;38602;-81
2022/03/26 11:27:48;;;;;;;19.25;12.88;;;18.00;99.90;;;;;;4984843;28;38401;-80
2022/03/26 11:30:31;;;;;;;18.40;12.95;;;17.90;99.90;;;;;;4984350;28;37948;-80
2022/03/26 11:33:09;;;;;;;19.38;11.88;;;18.10;99.90;;;;;;4977919;28;39172;-80
2022/03/26 11:35:35;;;;;;;20.98;13.07;;;18.40;99.90;;;;;;4984037;28;48618;-80
2022/03/26 11:38:02;;;;;;;24.02;13.13;;;18.50;99.90;;;;;;4964843;28;38355;-79
2022/03/26 11:40:53;;;;;;;20.48;13.18;;;18.50;99.90;;;;;;4980854;28;38901;-79
2022/03/26 11:43:42;;;;;;;21.55;12.43;;;18.50;99.90;;;;;;4978039;28;38951;-80
2022/03/26 11:51:55;;;;;;;23.58;14.13;;;18.60;99.90;;;;;;4978853;28;49205;-78
2022/03/26 11:54:21;;;;;;;23.15;14.50;;;18.80;99.90;;;;;;4977123;28;38477;-79
2022/03/26 11:57:06;;;;;;;21.35;12.57;;;18.70;99.90;;;;;;4965364;28;40230;-79
2022/03/26 11:59:37;;;;;;;22.13;14.73;;;18.70;99.90;;;;;;4976441;28;49054;-78
2022/03/26 12:02:19;;;;;;;23.48;15.65;;;18.90;99.90;;;;;;4985665;28;38759;-79
2022/03/26 12:08:16;;;;;;;30.58;17.20;;;19.00;99.90;;;;;;4984250;28;49416;-78
2022/03/26 12:10:43;;;;;;;31.50;19.27;;;19.00;99.90;;;;;;4984214;28;37947;-79
2022/03/26 12:13:09;;;;;;;31.50;20.52;;;19.10;99.90;;;;;;4981515;28;38975;-79
2022/03/26 12:15:36;;;;;;;37.40;20.48;;;19.00;99.90;;;;;;4981238;28;38419;-78
2022/03/26 12:18:09;;;;;;;32.40;20.95;;;18.90;99.90;;;;;;4966152;28;39040;-78
2022/03/26 12:20:48;;;;;;;43.97;22.88;;;19.20;99.90;;;;;;4968809;28;36213;-77
2022/03/26 12:23:19;;;;;;;39.55;21.23;;;19.30;99.90;;;;;;4964461;28;39301;-78
2022/03/26 12:25:53;;;;;;;35.65;19.88;;;19.30;99.90;;;;;;4980101;28;40005;-80
2022/03/26 12:28:25;;;;;;;36.08;20.98;;;19.60;99.90;;;;;;4980179;28;38782;-78
2022/03/26 12:30:57;;;;;;;33.92;20.63;;;19.90;99.90;;;;;;4975827;28;39189;-78
2022/03/26 12:33:24;;;;;;;38.97;21.03;;;19.70;99.90;;;;;;4984817;28;38988;-77
2022/03/26 12:35:53;;;;;;;44.10;24.02;;;19.60;99.90;;;;;;4978892;28;39019;-80
2022/03/26 12:38:21;;;;;;;42.35;22.75;;;19.60;99.90;;;;;;4982674;28;38614;-79
2022/03/26 12:40:52;;;;;;;45.88;23.17;;;19.70;99.90;;;;;;4981275;28;37496;-80
2022/03/26 12:43:19;;;;;;;43.65;25.10;;;19.70;99.90;;;;;;4981710;28;40380;-79
2022/03/26 12:45:45;;;;;;;50.47;26.70;;;19.80;99.90;;;;;;4981756;28;37991;-80
2022/03/26 12:48:12;;;;;;;49.22;27.02;;;19.80;99.90;;;;;;4982142;28;38807;-78